Weather at Rome–Fiumicino Leonardo da Vinci International Airport

Public forecast

Using degrees Celsius for public forecast. Weather courtesy of forecast.io.

Current aviation weather report (METAR) for Rome–Fiumicino Leonardo da Vinci International Airport

Retrieved 2022/05/23 08:20 UTC (21 minutes ago):

LIRF 230820Z 16007KT 120V200 9999 FEW015 24/17 Q1012 NOSIG

Aviation forecast (TAF) for Rome–Fiumicino Leonardo da Vinci International Airport

Retrieved 2022/05/23 06:00 UTC (3 hours ago):

TAF LIRF 230500Z 2306/2412 VRB04KT CAVOK BECMG 2307/2309 22012KT BECMG 2318/2321 16010KT BECMG 2403/2406 16018G28KT